createdAt,value
2017-06-25T00:00:29.532Z,998.83
2017-06-25T00:01:29.574Z,998.82
2017-06-25T00:02:29.617Z,998.82
2017-06-25T00:03:29.657Z,998.8
2017-06-25T00:04:29.696Z,998.83
2017-06-25T00:05:29.746Z,998.81
2017-06-25T00:06:29.779Z,998.84
2017-06-25T00:07:29.817Z,998.83
2017-06-25T00:08:29.876Z,998.84
2017-06-25T00:09:29.900Z,998.78
2017-06-25T00:10:29.939Z,998.77
2017-06-25T00:11:29.978Z,998.78
2017-06-25T00:12:30.022Z,998.79
2017-06-25T00:13:30.061Z,998.79
2017-06-25T00:14:30.102Z,998.81
2017-06-25T00:15:30.141Z,998.78
2017-06-25T00:16:30.185Z,998.77
2017-06-25T00:17:30.228Z,998.73
2017-06-25T00:18:30.266Z,998.77
2017-06-25T00:19:30.308Z,998.74
2017-06-25T00:20:30.345Z,998.68
2017-06-25T00:21:30.388Z,998.7
2017-06-25T00:22:30.427Z,998.71
2017-06-25T00:23:30.466Z,998.74
2017-06-25T00:24:30.510Z,998.73
2017-06-25T00:25:30.549Z,998.71
2017-06-25T00:26:30.587Z,998.67
2017-06-25T00:27:30.631Z,998.65
2017-06-25T00:28:30.669Z,998.64
2017-06-25T00:29:30.710Z,998.6
2017-06-25T00:30:30.751Z,998.6
2017-06-25T00:31:30.794Z,998.58
2017-06-25T00:32:30.832Z,998.54
2017-06-25T00:33:30.875Z,998.54
2017-06-25T00:34:30.913Z,998.49
2017-06-25T00:35:30.957Z,998.47
2017-06-25T00:36:30.994Z,998.49
2017-06-25T00:37:31.036Z,998.42
2017-06-25T00:38:31.078Z,998.42
2017-06-25T00:39:31.118Z,998.38
2017-06-25T00:40:31.156Z,998.39
2017-06-25T00:41:31.199Z,998.35
2017-06-25T00:42:31.241Z,998.31
2017-06-25T00:43:31.281Z,998.3
2017-06-25T00:44:31.317Z,998.29
2017-06-25T00:45:31.359Z,998.29
2017-06-25T00:46:31.402Z,998.3
2017-06-25T00:47:31.442Z,998.27
2017-06-25T00:48:31.484Z,998.3
2017-06-25T00:49:31.521Z,998.29
2017-06-25T00:50:31.565Z,998.27
2017-06-25T00:51:31.605Z,998.25
2017-06-25T00:52:31.644Z,998.22
2017-06-25T00:53:31.714Z,998.19
2017-06-25T00:54:31.724Z,998.2
2017-06-25T00:55:31.767Z,998.18
2017-06-25T00:56:31.804Z,998.18
2017-06-25T00:57:31.848Z,998.14
2017-06-25T00:58:31.886Z,998.14
2017-06-25T00:59:31.929Z,998.13
2017-06-25T01:00:31.969Z,998.12
2017-06-25T01:01:32.006Z,998.14
2017-06-25T01:02:32.050Z,998.14
2017-06-25T01:03:32.098Z,998.13
2017-06-25T01:04:32.131Z,998.14
2017-06-25T01:05:32.169Z,998.09
2017-06-25T01:06:32.211Z,998.08
2017-06-25T01:07:32.250Z,998.07
2017-06-25T01:08:32.294Z,998.06
2017-06-25T01:09:32.331Z,998.03
2017-06-25T01:10:32.373Z,998.02
2017-06-25T01:11:32.414Z,998.02
2017-06-25T01:12:32.451Z,998.01
2017-06-25T01:13:32.493Z,998.02
2017-06-25T01:14:32.531Z,998
2017-06-25T01:15:32.575Z,997.93
2017-06-25T01:16:32.616Z,997.95
2017-06-25T01:17:32.653Z,997.92
2017-06-25T01:18:32.696Z,997.91
2017-06-25T01:19:32.737Z,997.91
2017-06-25T01:20:32.774Z,997.9
2017-06-25T01:21:32.816Z,997.89
2017-06-25T01:22:32.855Z,997.9
2017-06-25T01:23:32.898Z,997.87
2017-06-25T01:24:32.936Z,997.86
2017-06-25T01:25:32.979Z,997.87
2017-06-25T01:26:33.020Z,997.84
2017-06-25T01:27:33.057Z,997.87
2017-06-25T01:28:33.097Z,997.86
2017-06-25T01:29:33.141Z,997.87
2017-06-25T01:30:33.181Z,997.87
2017-06-25T01:31:33.221Z,997.89
2017-06-25T01:32:33.261Z,997.92
2017-06-25T01:33:33.298Z,997.89
2017-06-25T01:34:33.339Z,997.91
2017-06-25T01:35:33.382Z,997.91
2017-06-25T01:36:33.422Z,997.9
2017-06-25T01:37:33.463Z,997.9
2017-06-25T01:38:33.503Z,997.88
2017-06-25T01:39:33.540Z,997.88
2017-06-25T01:40:33.580Z,997.89
2017-06-25T01:41:33.624Z,997.88
2017-06-25T01:42:33.662Z,997.87
2017-06-25T01:43:33.703Z,997.9
2017-06-25T01:44:33.741Z,997.84
2017-06-25T01:45:33.782Z,997.83
2017-06-25T01:46:33.822Z,997.85
2017-06-25T01:47:33.864Z,997.84
2017-06-25T01:48:33.905Z,997.9
2017-06-25T01:49:33.946Z,997.88
2017-06-25T01:50:33.984Z,997.86
2017-06-25T01:51:34.026Z,997.87
2017-06-25T01:52:34.063Z,997.91
2017-06-25T01:53:34.106Z,997.88
2017-06-25T01:54:34.147Z,997.85
2017-06-25T01:55:34.184Z,997.84
2017-06-25T01:56:34.226Z,997.85
2017-06-25T01:57:34.268Z,997.84
2017-06-25T01:58:34.305Z,997.87
2017-06-25T01:59:34.349Z,997.87
2017-06-25T02:00:34.391Z,997.82
2017-06-25T02:01:34.427Z,997.79
2017-06-25T02:02:34.468Z,997.78
2017-06-25T02:03:34.507Z,997.76
2017-06-25T02:04:34.550Z,997.73
2017-06-25T02:05:34.590Z,997.7
2017-06-25T02:06:34.631Z,997.72
2017-06-25T02:07:34.668Z,997.74
2017-06-25T02:08:34.711Z,997.68
2017-06-25T02:09:34.748Z,997.67
2017-06-25T02:10:34.796Z,997.7
2017-06-25T02:11:34.832Z,997.68
2017-06-25T02:12:34.871Z,997.68
2017-06-25T02:13:34.914Z,997.67
2017-06-25T02:14:34.950Z,997.68
2017-06-25T02:15:34.993Z,997.66
2017-06-25T02:16:35.033Z,997.67
2017-06-25T02:17:35.072Z,997.67
2017-06-25T02:18:35.111Z,997.69
2017-06-25T02:19:35.153Z,997.65
2017-06-25T02:20:35.193Z,997.65
2017-06-25T02:21:35.234Z,997.64
2017-06-25T02:22:35.271Z,997.62
2017-06-25T02:23:35.313Z,997.63
2017-06-25T02:24:35.351Z,997.6
2017-06-25T02:25:35.393Z,997.63
2017-06-25T02:26:35.431Z,997.66
2017-06-25T02:27:35.474Z,997.71
2017-06-25T02:28:35.512Z,997.71
2017-06-25T02:29:35.552Z,997.72
2017-06-25T02:30:35.593Z,997.73
2017-06-25T02:31:35.634Z,997.73
2017-06-25T02:32:35.675Z,997.74
2017-06-25T02:33:35.713Z,997.69
2017-06-25T02:34:35.752Z,997.69
2017-06-25T02:35:35.795Z,997.66
2017-06-25T02:36:35.833Z,997.65
2017-06-25T02:37:35.875Z,997.65
2017-06-25T02:38:35.912Z,997.65
2017-06-25T02:39:35.954Z,997.63
2017-06-25T02:40:36.001Z,997.63
2017-06-25T02:41:36.032Z,997.63
2017-06-25T02:42:36.072Z,997.63
2017-06-25T02:43:36.117Z,997.65
2017-06-25T02:44:36.156Z,997.63
2017-06-25T02:45:36.195Z,997.61
2017-06-25T02:46:36.232Z,997.64
2017-06-25T02:47:36.275Z,997.58
2017-06-25T02:48:36.315Z,997.6
2017-06-25T02:49:36.352Z,997.54
2017-06-25T02:50:36.395Z,997.53
2017-06-25T02:51:36.434Z,997.51
2017-06-25T02:52:36.472Z,997.49
2017-06-25T02:53:36.511Z,997.49
2017-06-25T02:54:36.554Z,997.49
2017-06-25T02:55:36.591Z,997.49
2017-06-25T02:56:36.634Z,997.47
2017-06-25T02:57:36.671Z,997.47
2017-06-25T02:58:36.714Z,997.49
2017-06-25T02:59:36.751Z,997.46
2017-06-25T03:00:36.795Z,997.47
2017-06-25T03:01:36.835Z,997.43
2017-06-25T03:02:36.872Z,997.51
2017-06-25T03:03:36.912Z,997.44
2017-06-25T03:04:36.954Z,997.45
2017-06-25T03:05:36.994Z,997.42
2017-06-25T03:06:37.034Z,997.43
2017-06-25T03:07:37.074Z,997.39
2017-06-25T03:08:37.110Z,997.33
2017-06-25T03:09:37.153Z,997.29
2017-06-25T03:10:37.190Z,997.23
2017-06-25T03:11:37.232Z,997.21
2017-06-25T03:12:37.269Z,997.22
2017-06-25T03:13:37.313Z,997.22
2017-06-25T03:14:37.352Z,997.28
2017-06-25T03:15:37.389Z,997.32
2017-06-25T03:16:37.430Z,997.26
2017-06-25T03:17:37.473Z,997.28
2017-06-25T03:18:37.513Z,997.3
2017-06-25T03:19:37.549Z,997.25
2017-06-25T03:20:37.592Z,997.25
2017-06-25T03:21:37.628Z,997.23
2017-06-25T03:22:37.671Z,997.2
2017-06-25T03:23:37.708Z,997.22
2017-06-25T03:24:37.751Z,997.24
2017-06-25T03:25:37.788Z,997.3
2017-06-25T03:26:37.831Z,997.32
2017-06-25T03:27:37.868Z,997.35
2017-06-25T03:28:37.912Z,997.35
2017-06-25T03:29:37.950Z,997.41
2017-06-25T03:30:37.990Z,997.41
2017-06-25T03:31:38.031Z,997.39
2017-06-25T03:32:38.068Z,997.39
2017-06-25T03:33:38.132Z,997.3
2017-06-25T03:34:38.152Z,997.33
2017-06-25T03:35:38.193Z,997.33
2017-06-25T03:36:38.231Z,997.33
2017-06-25T03:37:38.269Z,997.34
2017-06-25T03:38:38.313Z,997.37
2017-06-25T03:39:38.351Z,997.36
2017-06-25T03:40:38.393Z,997.38
2017-06-25T03:41:38.431Z,997.39
2017-06-25T03:42:38.472Z,997.43
2017-06-25T03:43:38.513Z,997.35
2017-06-25T03:44:38.552Z,997.4
2017-06-25T03:45:38.596Z,997.39
2017-06-25T03:46:38.635Z,997.37
2017-06-25T03:47:38.677Z,997.35
2017-06-25T03:48:38.716Z,997.37
2017-06-25T03:49:38.756Z,997.32
2017-06-25T03:50:38.801Z,997.34
2017-06-25T03:51:38.839Z,997.28
2017-06-25T03:52:38.876Z,997.29
2017-06-25T03:53:38.920Z,997.25
2017-06-25T03:54:38.960Z,997.24
2017-06-25T03:55:39.001Z,997.25
2017-06-25T03:56:39.041Z,997.27
2017-06-25T03:57:39.079Z,997.23
2017-06-25T03:58:39.122Z,997.24
2017-06-25T03:59:39.162Z,997.26
2017-06-25T04:00:39.204Z,997.33
2017-06-25T04:01:39.241Z,997.31
2017-06-25T04:02:39.284Z,997.32
2017-06-25T04:03:39.325Z,997.32
2017-06-25T04:04:39.365Z,997.31
2017-06-25T04:05:39.405Z,997.27
2017-06-25T04:06:39.445Z,997.27
2017-06-25T04:07:39.485Z,997.25
2017-06-25T04:08:39.523Z,997.21
2017-06-25T04:09:39.566Z,997.21
2017-06-25T04:10:39.604Z,997.18
2017-06-25T04:11:39.647Z,997.19
2017-06-25T04:12:39.688Z,997.15
2017-06-25T04:13:39.728Z,997.14
2017-06-25T04:14:39.768Z,997.13
2017-06-25T04:15:39.807Z,997.15
2017-06-25T04:16:39.848Z,997.21
2017-06-25T04:17:39.886Z,997.21
2017-06-25T04:18:39.929Z,997.17
2017-06-25T04:19:39.969Z,997.17
2017-06-25T04:20:40.010Z,997.14
2017-06-25T04:21:40.049Z,997.14
2017-06-25T04:22:40.092Z,997.12
2017-06-25T04:23:40.131Z,997.16
2017-06-25T04:24:40.174Z,997.16
2017-06-25T04:25:40.214Z,997.14
2017-06-25T04:26:40.258Z,997.16
2017-06-25T04:27:40.297Z,997.16
2017-06-25T04:28:40.341Z,997.17
2017-06-25T04:29:40.380Z,997.21
2017-06-25T04:30:40.426Z,997.16
2017-06-25T04:31:40.467Z,997.17
2017-06-25T04:32:40.510Z,997.2
2017-06-25T04:33:40.554Z,997.22
2017-06-25T04:34:40.596Z,997.18
2017-06-25T04:35:40.641Z,997.19
2017-06-25T04:36:40.684Z,997.22
2017-06-25T04:37:40.725Z,997.22
2017-06-25T04:38:40.769Z,997.21
2017-06-25T04:39:40.817Z,997.21
2017-06-25T04:40:40.861Z,997.24
2017-06-25T04:41:40.903Z,997.23
2017-06-25T04:42:40.947Z,997.2
2017-06-25T04:43:40.996Z,997.23
2017-06-25T04:44:41.037Z,997.19
2017-06-25T04:45:41.083Z,997.17
2017-06-25T04:46:41.125Z,997.09
2017-06-25T04:47:41.170Z,997.14
2017-06-25T04:48:41.219Z,997.11
2017-06-25T04:49:41.262Z,997.13
2017-06-25T04:50:41.309Z,997.13
2017-06-25T04:51:41.353Z,997.11
2017-06-25T04:52:41.395Z,997.11
2017-06-25T04:53:41.443Z,997.04
2017-06-25T04:54:41.486Z,997.07
2017-06-25T04:55:41.536Z,997.05
2017-06-25T04:56:41.579Z,997.02
2017-06-25T04:57:41.629Z,997.07
2017-06-25T04:58:41.671Z,997.09
2017-06-25T04:59:41.714Z,997.13
2017-06-25T05:00:41.761Z,997.1
2017-06-25T05:01:41.813Z,997.1
2017-06-25T05:02:41.849Z,997.12
2017-06-25T05:03:41.896Z,997.08
2017-06-25T05:04:41.938Z,997.05
2017-06-25T05:05:41.982Z,997.06
2017-06-25T05:06:42.030Z,997.06
2017-06-25T05:07:42.073Z,997.02
2017-06-25T05:08:42.118Z,997.04
2017-06-25T05:09:42.160Z,996.99
2017-06-25T05:10:42.207Z,996.98
2017-06-25T05:11:42.248Z,996.95
2017-06-25T05:12:42.304Z,996.96
2017-06-25T05:13:42.340Z,996.91
2017-06-25T05:14:42.384Z,996.92
2017-06-25T05:15:42.427Z,996.9
2017-06-25T05:16:42.472Z,996.88
2017-06-25T05:17:42.515Z,996.81
2017-06-25T05:18:42.560Z,996.83
2017-06-25T05:19:42.603Z,996.82
2017-06-25T05:20:42.646Z,996.79
2017-06-25T05:21:42.690Z,996.73
2017-06-25T05:22:42.736Z,996.71
2017-06-25T05:23:42.780Z,996.76
2017-06-25T05:24:42.824Z,996.73
2017-06-25T05:25:42.868Z,996.73
2017-06-25T05:26:42.908Z,996.74
2017-06-25T05:27:42.955Z,996.72
2017-06-25T05:28:42.999Z,996.7
2017-06-25T05:29:43.041Z,996.68
2017-06-25T05:30:43.088Z,996.64
2017-06-25T05:31:43.129Z,996.69
2017-06-25T05:32:43.169Z,996.67
2017-06-25T05:33:43.214Z,996.62
2017-06-25T05:34:43.258Z,996.58
2017-06-25T05:35:43.304Z,996.66
2017-06-25T05:36:43.345Z,996.6
2017-06-25T05:37:43.386Z,996.58
2017-06-25T05:38:43.431Z,996.59
2017-06-25T05:39:43.487Z,996.57
2017-06-25T05:40:43.517Z,996.59
2017-06-25T05:41:43.561Z,996.67
2017-06-25T05:42:43.604Z,996.69
2017-06-25T05:43:43.646Z,996.7
2017-06-25T05:44:43.690Z,996.78
2017-06-25T05:45:43.737Z,996.71
2017-06-25T05:46:43.776Z,996.71
2017-06-25T05:47:43.823Z,996.7
2017-06-25T05:48:43.881Z,996.69
2017-06-25T05:49:43.915Z,996.72
2017-06-25T05:50:43.955Z,996.75
2017-06-25T05:51:44.002Z,996.77
2017-06-25T05:52:44.048Z,996.8
2017-06-25T05:53:44.091Z,996.85
2017-06-25T05:54:44.140Z,996.9
2017-06-25T05:55:44.186Z,996.86
2017-06-25T05:56:44.231Z,996.78
2017-06-25T05:57:44.280Z,996.83
2017-06-25T05:58:44.330Z,996.83
2017-06-25T05:59:44.374Z,996.78
2017-06-25T06:00:44.426Z,996.81
2017-06-25T06:01:44.474Z,996.82
2017-06-25T06:02:44.524Z,996.82
2017-06-25T06:03:44.574Z,996.83
2017-06-25T06:04:44.623Z,996.84
2017-06-25T06:05:44.676Z,996.89
2017-06-25T06:06:44.725Z,996.88
2017-06-25T06:07:44.777Z,996.86
2017-06-25T06:08:44.825Z,996.86
2017-06-25T06:09:44.879Z,996.89
2017-06-25T06:10:44.929Z,996.88
2017-06-25T06:11:44.983Z,996.87
2017-06-25T06:12:45.032Z,996.98
2017-06-25T06:13:45.086Z,996.93
2017-06-25T06:14:45.139Z,996.93
2017-06-25T06:15:45.188Z,996.99
2017-06-25T06:16:45.244Z,996.99
2017-06-25T06:17:45.294Z,997
2017-06-25T06:18:45.349Z,996.99
2017-06-25T06:19:45.399Z,997
2017-06-25T06:20:45.453Z,996.98
2017-06-25T06:21:45.505Z,996.97
2017-06-25T06:22:45.560Z,996.97
2017-06-25T06:23:45.613Z,996.95
2017-06-25T06:24:45.666Z,996.92
2017-06-25T06:25:45.720Z,996.94
2017-06-25T06:26:45.774Z,996.91
2017-06-25T06:27:45.826Z,996.94
2017-06-25T06:28:45.876Z,996.86
2017-06-25T06:29:45.933Z,996.83
2017-06-25T06:30:45.987Z,996.87
2017-06-25T06:31:46.040Z,996.78
2017-06-25T06:32:46.095Z,996.8
2017-06-25T06:33:46.149Z,996.83
2017-06-25T06:34:46.203Z,996.75
2017-06-25T06:35:46.254Z,996.82
2017-06-25T06:36:46.311Z,996.83
2017-06-25T06:37:46.366Z,996.84
2017-06-25T06:38:46.422Z,996.92
2017-06-25T06:39:46.474Z,996.96
2017-06-25T06:40:46.531Z,997.06
2017-06-25T06:41:46.584Z,997.13
2017-06-25T06:42:46.639Z,997.11
2017-06-25T06:43:46.747Z,997.09
2017-06-25T06:44:46.752Z,997.07
2017-06-25T06:45:46.807Z,997.02
2017-06-25T06:46:46.859Z,996.97
2017-06-25T06:47:46.917Z,996.95
2017-06-25T06:48:46.971Z,996.98
2017-06-25T06:49:47.029Z,996.94
2017-06-25T06:50:47.082Z,996.88
2017-06-25T06:51:47.141Z,996.87
2017-06-25T06:52:47.195Z,996.76
2017-06-25T06:53:47.250Z,996.73
2017-06-25T06:54:47.309Z,996.7
2017-06-25T06:55:47.367Z,996.66
2017-06-25T06:56:47.423Z,996.6
2017-06-25T06:57:47.480Z,996.64
2017-06-25T06:58:47.536Z,996.76
2017-06-25T06:59:47.596Z,996.67
2017-06-25T07:00:47.653Z,996.59
2017-06-25T07:01:47.706Z,996.57
2017-06-25T07:02:47.764Z,996.61
2017-06-25T07:03:47.825Z,996.6
2017-06-25T07:04:47.878Z,996.62
2017-06-25T07:05:47.937Z,996.65
2017-06-25T07:06:47.997Z,996.66
2017-06-25T07:07:48.053Z,996.66
2017-06-25T07:08:48.108Z,996.63
2017-06-25T07:09:48.165Z,996.65
2017-06-25T07:10:48.225Z,996.61
2017-06-25T07:11:48.282Z,996.7
2017-06-25T07:12:48.336Z,996.69
2017-06-25T07:13:48.396Z,996.58
2017-06-25T07:14:48.452Z,996.78
2017-06-25T07:15:48.512Z,996.74
2017-06-25T07:16:48.570Z,996.72
2017-06-25T07:17:48.627Z,996.72
2017-06-25T07:18:48.682Z,996.73
2017-06-25T07:19:48.743Z,996.73
2017-06-25T07:20:48.802Z,996.77
2017-06-25T07:21:48.862Z,996.81
2017-06-25T07:22:48.916Z,996.88
2017-06-25T07:23:48.975Z,996.89
2017-06-25T07:24:49.034Z,996.86
2017-06-25T07:25:49.089Z,996.87
2017-06-25T07:26:49.150Z,996.78
2017-06-25T07:27:49.205Z,996.84
2017-06-25T07:28:49.266Z,996.86
2017-06-25T07:29:49.323Z,996.86
2017-06-25T07:30:49.380Z,996.93
2017-06-25T07:31:49.441Z,997
2017-06-25T07:32:49.496Z,996.94
2017-06-25T07:33:49.554Z,996.92
2017-06-25T07:34:49.615Z,996.94
2017-06-25T07:35:49.670Z,996.91
2017-06-25T07:36:49.729Z,996.84
2017-06-25T07:37:49.786Z,996.88
2017-06-25T07:38:49.842Z,996.87
2017-06-25T07:39:49.899Z,996.95
2017-06-25T07:40:49.959Z,996.94
2017-06-25T07:41:50.016Z,997
2017-06-25T07:42:50.070Z,996.98
2017-06-25T07:43:50.128Z,996.97
2017-06-25T07:44:50.188Z,997.07
2017-06-25T07:45:50.246Z,996.98
2017-06-25T07:46:50.302Z,996.86
2017-06-25T07:47:50.361Z,996.91
2017-06-25T07:48:50.415Z,996.83
2017-06-25T07:49:50.475Z,996.91
2017-06-25T07:50:50.529Z,996.86
2017-06-25T07:51:50.589Z,996.91
2017-06-25T07:52:50.641Z,996.88
2017-06-25T07:53:50.700Z,996.88
2017-06-25T07:54:50.753Z,997.03
2017-06-25T07:55:50.809Z,997.03
2017-06-25T07:56:50.868Z,997.05
2017-06-25T07:57:50.925Z,996.95
2017-06-25T07:58:50.981Z,997.01
2017-06-25T07:59:51.039Z,997.02
2017-06-25T08:00:51.091Z,997.08
2017-06-25T08:01:51.152Z,997
2017-06-25T08:02:51.209Z,996.99
2017-06-25T08:03:51.262Z,997.02
2017-06-25T08:04:51.323Z,997.02
2017-06-25T08:05:51.380Z,996.97
2017-06-25T08:06:51.438Z,996.98
2017-06-25T08:07:51.496Z,996.96
2017-06-25T08:08:51.553Z,996.96
2017-06-25T08:09:51.613Z,996.99
2017-06-25T08:10:51.670Z,996.91
2017-06-25T08:11:51.729Z,996.78
2017-06-25T08:12:51.786Z,996.87
2017-06-25T08:13:51.848Z,996.9
2017-06-25T08:14:51.903Z,997.07
2017-06-25T08:15:51.959Z,997
2017-06-25T08:16:52.018Z,996.91
2017-06-25T08:17:52.078Z,997
2017-06-25T08:18:52.136Z,996.99
2017-06-25T08:19:52.192Z,997.06
2017-06-25T08:20:52.253Z,996.98
2017-06-25T08:21:52.308Z,997.01
2017-06-25T08:22:52.369Z,996.92
2017-06-25T08:23:52.426Z,996.98
2017-06-25T08:24:52.483Z,996.97
2017-06-25T08:25:52.543Z,996.96
2017-06-25T08:26:52.599Z,996.92
2017-06-25T08:27:52.661Z,996.95
2017-06-25T08:28:52.716Z,996.97
2017-06-25T08:29:52.777Z,996.87
2017-06-25T08:30:52.835Z,996.78
2017-06-25T08:31:52.894Z,996.82
2017-06-25T08:32:52.956Z,996.81
2017-06-25T08:33:53.011Z,996.79
2017-06-25T08:34:53.071Z,996.84
2017-06-25T08:35:53.126Z,996.81
2017-06-25T08:36:53.189Z,996.78
2017-06-25T08:37:53.244Z,996.84
2017-06-25T08:38:53.304Z,996.87
2017-06-25T08:39:53.364Z,996.8
2017-06-25T08:40:53.419Z,996.8
2017-06-25T08:41:53.478Z,996.84
2017-06-25T08:42:53.540Z,996.88
2017-06-25T08:43:53.596Z,996.77
2017-06-25T08:44:53.656Z,996.71
2017-06-25T08:45:53.715Z,996.73
2017-06-25T08:46:53.773Z,996.73
2017-06-25T08:47:53.833Z,996.76
2017-06-25T08:48:53.890Z,996.18
2017-06-25T08:49:53.951Z,996.73
2017-06-25T08:50:54.010Z,996.74
2017-06-25T08:51:54.067Z,996.78
2017-06-25T08:52:54.130Z,996.76
2017-06-25T08:53:54.186Z,996.76
2017-06-25T08:54:54.247Z,996.77
2017-06-25T08:55:54.306Z,996.73
2017-06-25T08:56:54.366Z,996.67
2017-06-25T08:57:54.421Z,996.7
2017-06-25T08:58:54.483Z,996.74
2017-06-25T08:59:54.544Z,996.74
2017-06-25T09:00:54.602Z,996.6
2017-06-25T09:01:54.657Z,996.73
2017-06-25T09:02:54.719Z,996.75
2017-06-25T09:03:54.775Z,996.7
2017-06-25T09:04:54.838Z,996.71
2017-06-25T09:05:54.897Z,996.68
2017-06-25T09:06:54.956Z,996.74
2017-06-25T09:07:55.016Z,996.39
2017-06-25T09:08:55.075Z,996.78
2017-06-25T09:09:55.134Z,996.38
2017-06-25T09:10:55.189Z,996.71
2017-06-25T09:11:55.251Z,996.7
2017-06-25T09:12:55.308Z,996.71
2017-06-25T09:13:55.364Z,996.69
2017-06-25T09:14:55.425Z,996.73
2017-06-25T09:15:55.481Z,996.69
2017-06-25T09:16:55.542Z,996.72
2017-06-25T09:17:55.600Z,996.71
2017-06-25T09:18:55.657Z,996.66
2017-06-25T09:19:55.717Z,996.62
2017-06-25T09:20:55.777Z,996.26
2017-06-25T09:21:55.834Z,996.69
2017-06-25T09:22:55.896Z,996.59
2017-06-25T09:23:55.953Z,996.65
2017-06-25T09:24:56.010Z,996.65
2017-06-25T09:25:56.070Z,996.61
2017-06-25T09:26:56.151Z,996.66
2017-06-25T09:27:56.189Z,996.62
2017-06-25T09:28:56.249Z,996.69
2017-06-25T09:29:56.305Z,996.69
2017-06-25T09:30:56.373Z,996.37
2017-06-25T09:31:56.423Z,996.63
2017-06-25T09:32:56.484Z,996.69
2017-06-25T09:33:56.544Z,996.37
2017-06-25T09:34:56.598Z,996.43
2017-06-25T09:35:56.660Z,996.75
2017-06-25T09:36:56.714Z,996.69
2017-06-25T09:37:56.776Z,996.71
2017-06-25T09:38:56.833Z,996.73
2017-06-25T09:39:56.892Z,996.64
2017-06-25T09:40:56.951Z,996.38
2017-06-25T09:41:57.005Z,996.31
2017-06-25T09:42:57.062Z,996.41
2017-06-25T09:43:57.125Z,996.31
2017-06-25T09:44:57.180Z,996.69
2017-06-25T09:45:57.235Z,996.59
2017-06-25T09:46:57.295Z,996.65
2017-06-25T09:47:57.353Z,996.74
2017-06-25T09:48:57.405Z,996.72
2017-06-25T09:49:57.463Z,996.73
2017-06-25T09:50:57.520Z,996.75
2017-06-25T09:51:57.574Z,996.7
2017-06-25T09:52:57.635Z,996.67
2017-06-25T09:53:57.692Z,996.69
2017-06-25T09:54:57.747Z,996.65
2017-06-25T09:55:57.806Z,996.57
2017-06-25T09:56:57.861Z,996.22
2017-06-25T09:57:57.922Z,996.51
2017-06-25T09:58:57.980Z,996.56
2017-06-25T09:59:58.036Z,996.44
2017-06-25T10:00:58.095Z,996.49
2017-06-25T10:01:58.154Z,996.49
2017-06-25T10:02:58.208Z,996.26
2017-06-25T10:03:58.268Z,996.52
2017-06-25T10:04:58.323Z,996.54
2017-06-25T10:05:58.392Z,996.53
2017-06-25T10:06:58.442Z,996.56
2017-06-25T10:07:58.497Z,996.59
2017-06-25T10:08:58.569Z,996.58
2017-06-25T10:09:58.614Z,996.58
2017-06-25T10:10:58.675Z,996.56
2017-06-25T10:11:58.732Z,996.53
2017-06-25T10:12:58.787Z,996.18
2017-06-25T10:13:58.847Z,996.35
2017-06-25T10:14:58.908Z,996.62
2017-06-25T10:15:58.964Z,996.53
2017-06-25T10:16:59.022Z,996.57
2017-06-25T10:17:59.080Z,996.57
2017-06-25T10:18:59.134Z,996.54
2017-06-25T10:19:59.195Z,996.6
2017-06-25T10:20:59.250Z,996.59
2017-06-25T10:21:59.311Z,996.58
2017-06-25T10:22:59.368Z,996.59
2017-06-25T10:23:59.423Z,996.53
2017-06-25T10:24:59.485Z,996.55
2017-06-25T10:25:59.539Z,996.54
2017-06-25T10:26:59.600Z,996.27
2017-06-25T10:27:59.655Z,996.26
2017-06-25T10:28:59.717Z,996.46
2017-06-25T10:29:59.790Z,996.25
2017-06-25T10:30:59.831Z,996.21
2017-06-25T10:31:59.888Z,996.48
2017-06-25T10:32:59.945Z,996.51
2017-06-25T10:34:00.000Z,996.52
2017-06-25T10:35:00.059Z,996.49
2017-06-25T10:36:00.114Z,996.47
2017-06-25T10:37:00.172Z,996.43
2017-06-25T10:38:00.227Z,996.42
2017-06-25T10:39:00.285Z,996.23
2017-06-25T10:40:00.350Z,996.2
2017-06-25T10:41:00.401Z,996.25
2017-06-25T10:42:00.457Z,996.48
2017-06-25T10:43:00.515Z,996.36
2017-06-25T10:44:00.569Z,996.28
2017-06-25T10:45:00.626Z,996.39
2017-06-25T10:46:00.686Z,996.32
2017-06-25T10:47:00.744Z,996.35
2017-06-25T10:48:00.796Z,996.32
2017-06-25T10:49:00.857Z,996.38
2017-06-25T10:50:00.913Z,996.45
2017-06-25T10:51:00.968Z,996.39
2017-06-25T10:52:01.024Z,996.38
2017-06-25T10:53:01.085Z,996.28
2017-06-25T10:54:01.140Z,996.31
2017-06-25T10:55:01.202Z,996.37
2017-06-25T10:56:01.255Z,996.44
2017-06-25T10:57:01.312Z,996.39
2017-06-25T10:58:01.373Z,996.44
2017-06-25T10:59:01.425Z,996.36
2017-06-25T11:00:01.483Z,996.19
2017-06-25T11:01:01.539Z,996.1
2017-06-25T11:02:01.599Z,996.18
2017-06-25T11:03:01.654Z,996.17
2017-06-25T11:04:01.710Z,995.96
2017-06-25T11:05:01.764Z,996.13
2017-06-25T11:06:01.844Z,996.1
2017-06-25T11:07:01.869Z,996.03
2017-06-25T11:08:01.927Z,995.96
2017-06-25T11:09:01.976Z,995.96
2017-06-25T11:10:02.032Z,995.98
2017-06-25T11:11:02.082Z,995.85
2017-06-25T11:12:02.139Z,995.9
2017-06-25T11:13:02.187Z,995.88
2017-06-25T11:14:02.240Z,995.86
2017-06-25T11:15:02.289Z,995.89
2017-06-25T11:16:02.343Z,995.89
2017-06-25T11:17:02.394Z,995.93
2017-06-25T11:18:02.442Z,995.86
2017-06-25T11:19:02.495Z,995.98
2017-06-25T11:20:02.546Z,996.02
2017-06-25T11:21:02.593Z,996.01
2017-06-25T11:22:02.647Z,995.98
2017-06-25T11:23:02.698Z,995.85
2017-06-25T11:24:02.748Z,995.81
2017-06-25T11:25:02.798Z,995.78
2017-06-25T11:26:02.848Z,995.76
2017-06-25T11:27:02.895Z,995.73
2017-06-25T11:28:02.946Z,995.75
2017-06-25T11:29:02.995Z,995.8
2017-06-25T11:30:03.055Z,995.92
2017-06-25T11:31:03.096Z,996
2017-06-25T11:32:03.145Z,995.94
2017-06-25T11:33:03.193Z,996.02
2017-06-25T11:34:03.245Z,996.07
2017-06-25T11:35:03.294Z,995.97
2017-06-25T11:36:03.344Z,995.96
2017-06-25T11:37:03.392Z,995.9
2017-06-25T11:38:03.443Z,995.88
2017-06-25T11:39:03.487Z,995.88
2017-06-25T11:40:03.540Z,995.78
2017-06-25T11:41:03.587Z,995.87
2017-06-25T11:42:03.638Z,995.87
2017-06-25T11:43:03.684Z,995.89
2017-06-25T11:44:03.738Z,995.87
2017-06-25T11:45:03.783Z,995.93
2017-06-25T11:46:03.832Z,995.91
2017-06-25T11:47:03.883Z,995.91
2017-06-25T11:48:03.928Z,995.96
2017-06-25T11:49:03.977Z,995.97
2017-06-25T11:50:04.028Z,995.97
2017-06-25T11:51:04.076Z,995.98
2017-06-25T11:52:04.123Z,995.87
2017-06-25T11:53:04.174Z,995.89
2017-06-25T11:54:04.218Z,995.9
2017-06-25T11:55:04.270Z,995.85
2017-06-25T11:56:04.319Z,995.86
2017-06-25T11:57:04.368Z,995.87
2017-06-25T11:58:04.412Z,995.92
2017-06-25T11:59:04.464Z,995.84
2017-06-25T12:00:04.508Z,995.86
2017-06-25T12:01:04.558Z,995.92
2017-06-25T12:02:04.607Z,995.86
2017-06-25T12:03:04.651Z,995.92
2017-06-25T12:04:04.701Z,995.96
2017-06-25T12:05:04.748Z,995.96
2017-06-25T12:06:04.798Z,995.97
2017-06-25T12:07:04.846Z,996.01
2017-06-25T12:08:04.891Z,995.98
2017-06-25T12:09:04.941Z,995.95
2017-06-25T12:10:04.985Z,996.06
2017-06-25T12:11:05.035Z,995.98
2017-06-25T12:12:05.083Z,996.09
2017-06-25T12:13:05.127Z,996.11
2017-06-25T12:14:05.175Z,996.02
2017-06-25T12:15:05.227Z,996.11
2017-06-25T12:16:05.272Z,996.15
2017-06-25T12:17:05.320Z,996.2
2017-06-25T12:18:05.364Z,996.19
2017-06-25T12:19:05.415Z,996.25
2017-06-25T12:20:05.459Z,996.2
2017-06-25T12:21:05.509Z,996.15
2017-06-25T12:22:05.557Z,996.21
2017-06-25T12:23:05.600Z,996.21
2017-06-25T12:24:05.651Z,996.16
2017-06-25T12:25:05.694Z,996.2
2017-06-25T12:26:05.741Z,996.12
2017-06-25T12:27:05.790Z,996.15
2017-06-25T12:28:05.835Z,996.23
2017-06-25T12:29:05.885Z,996.28
2017-06-25T12:30:05.930Z,996.29
2017-06-25T12:31:05.980Z,996.28
2017-06-25T12:32:06.028Z,996.25